Meteorología y climatología de Navarra
Datos de la estación - Meteo Navarra

Estación de Carcastillo (La Oliva) GN

Altitud 343 m.


Datos desde el 26/03/2020 hasta el 27/03/2020 en horario solar
Los datos son PROVISIONALES

Anterior Página 1 de 1 Siguiente Descargar: Formato para Excel 2000 o superior   Formato csv   Formato para OpenOffice Calc
Fecha Temperatura Humedad relativa Radiación global Insolación Precipitación Vel. viento 10 m Vel. viento 10 m Dir. viento 10 m
ºC % W/m² s l/m² m/s km/h º
26/03/2020 0:00 4.4 86 0.0 0 0.0 1.4 4.9 254
26/03/2020 0:10 4.1 85 0.0 0 0.0 1.0 3.5 240
26/03/2020 0:20 3.8 85 0.0 0 0.0 1.3 4.5 240
26/03/2020 0:30 3.4 87 0.0 0 0.0 2.3 8.2 263
26/03/2020 0:40 3.2 91 0.0 0 0.0 2.4 8.7 267
26/03/2020 0:50 3.0 92 0.0 0 0.0 2.4 8.8 268
26/03/2020 1:00 3.3 89 0.0 0 0.0 3.4 12.1 284
26/03/2020 1:10 3.6 86 0.0 0 0.0 3.1 11.3 273
26/03/2020 1:20 3.8 83 0.0 0 0.0 2.8 10.0 270
26/03/2020 1:30 3.9 82 0.0 0 0.0 2.7 9.7 262
26/03/2020 1:40 4.1 82 0.0 0 0.0 2.1 7.7 256
26/03/2020 1:50 4.2 81 0.0 0 0.0 2.4 8.5 268
26/03/2020 2:00 4.4 80 0.0 0 0.0 2.5 9.1 278
26/03/2020 2:10 4.5 80 0.0 0 0.0 3.6 13.1 262
26/03/2020 2:20 4.5 81 0.0 0 0.0 2.9 10.3 273
26/03/2020 2:30 4.5 81 0.0 0 0.0 3.7 13.2 280
26/03/2020 2:40 4.5 81 0.0 0 0.0 3.2 11.4 282
26/03/2020 2:50 4.6 80 0.0 0 0.0 2.8 10.1 279
26/03/2020 3:00 4.4 81 0.0 0 0.0 2.6 9.3 273
26/03/2020 3:10 4.3 82 0.0 0 0.0 0.5 1.7 245
26/03/2020 3:20 4.1 83 0.0 0 0.0 0.5 1.6 233
26/03/2020 3:30 4.0 84 0.0 0 0.0 0.8 3.0 202
26/03/2020 3:40 3.9 85 0.0 0 0.0 0.8 2.8 299
26/03/2020 3:50 3.8 87 0.0 0 0.0 1.2 4.4 56
26/03/2020 4:00 3.9 88 0.0 0 0.0 0.7 2.5 86
26/03/2020 4:10 4.2 87 0.0 0 0.0 1.9 6.9 314
26/03/2020 4:20 4.6 86 0.0 0 0.0 1.7 6.0 294
26/03/2020 4:30 4.8 84 0.0 0 0.0 3.2 11.6 292
26/03/2020 4:40 5.1 83 0.0 0 0.0 3.1 11.1 290
26/03/2020 4:50 5.1 83 0.0 0 0.0 2.3 8.4 295
26/03/2020 5:00 5.0 84 0.0 0 0.0 2.4 8.7 286
26/03/2020 5:10 5.0 85 0.0 0 0.0 2.4 8.6 285
26/03/2020 5:20 4.9 86 0.0 0 0.0 2.2 7.8 289
26/03/2020 5:30 4.9 87 0.0 0 0.0 2.5 9.0 286
26/03/2020 5:40 5.1 86 0.0 0 0.0 2.7 9.9 287
26/03/2020 5:50 5.2 86 0.0 0 0.0 3.0 10.7 284
26/03/2020 6:00 5.2 86 0.0 0 0.0 2.9 10.3 285
26/03/2020 6:10 5.4 86 0.0 0 0.0 2.5 8.9 286
26/03/2020 6:20 5.4 87 0.0 0 0.0 2.1 7.6 288
26/03/2020 6:30 5.4 87 8.9 0 0.0 2.4 8.5 283
26/03/2020 6:40 5.5 87 32.4 0 0.0 2.6 9.3 282
26/03/2020 6:50 5.8 86 48.3 26 0.0 3.2 11.6 283
26/03/2020 7:00 6.1 84 56.2 0 0.0 3.1 11.3 281
26/03/2020 7:10 6.3 83 64.9 20 0.0 3.1 11.3 280
26/03/2020 7:20 6.4 82 81.5 34 0.0 2.2 8.1 284
26/03/2020 7:30 6.8 80 162.5 214 0.0 2.2 8.0 286
26/03/2020 7:40 7.5 78 289.6 588 0.0 2.1 7.4 285
26/03/2020 7:50 7.9 77 153.5 106 0.0 2.3 8.3 289
26/03/2020 8:00 8.1 76 202.7 220 0.0 2.0 7.3 296
26/03/2020 8:10 8.2 72 66.0 14 0.0 2.4 8.6 314
26/03/2020 8:20 8.3 64 149.7 100 0.0 4.2 15.2 333
26/03/2020 8:30 8.4 63 63.3 0 0.0 3.8 13.6 321
26/03/2020 8:40 8.3 61 43.2 0 0.0 4.2 14.9 328
26/03/2020 8:50 8.4 59 200.1 128 0.0 4.9 17.5 343
26/03/2020 9:00 9.0 57 380.4 312 0.0 4.8 17.1 350
26/03/2020 9:10 9.6 54 284.6 150 0.0 5.5 19.9 359
26/03/2020 9:20 9.5 52 264.2 140 0.0 5.5 19.8 0
26/03/2020 9:30 9.8 49 479.4 352 0.0 5.6 20.3 353
26/03/2020 9:40 9.9 46 304.0 154 0.0 7.3 26.1 1
26/03/2020 9:50 9.7 46 545.9 398 0.0 6.5 23.5 5
26/03/2020 10:00 10.5 47 730.7 534 0.0 7.9 28.3 22
26/03/2020 10:10 10.7 44 798.6 596 0.0 8.8 31.8 18
26/03/2020 10:20 10.7 43 850.0 598 0.0 8.0 28.7 5
26/03/2020 10:30 11.1 43 838.0 558 0.0 8.3 29.9 18
26/03/2020 10:40 10.9 42 748.6 474 0.0 8.8 31.8 360
26/03/2020 10:50 10.1 42 399.6 166 0.0 8.5 30.5 359
26/03/2020 11:00 10.2 40 888.0 600 0.0 8.2 29.4 353
26/03/2020 11:10 10.6 42 880.0 586 0.0 6.8 24.6 352
26/03/2020 11:20 10.7 41 857.0 596 0.0 7.2 25.8 351
26/03/2020 11:30 10.8 40 846.0 600 0.0 5.8 21.0 334
26/03/2020 11:40 11.0 39 847.0 600 0.0 6.3 22.8 338
26/03/2020 11:50 11.1 38 829.0 570 0.0 6.5 23.4 338
26/03/2020 12:00 11.0 37 906.0 600 0.0 6.2 22.2 340
26/03/2020 12:10 11.8 39 865.0 530 0.0 5.8 20.9 356
26/03/2020 12:20 11.4 39 853.0 552 0.0 6.2 22.2 332
26/03/2020 12:30 11.0 40 737.6 476 0.0 7.0 25.0 335
26/03/2020 12:40 11.4 36 877.0 600 0.0 6.4 22.9 345
26/03/2020 12:50 11.6 38 851.0 600 0.0 6.7 24.1 340
26/03/2020 13:00 11.5 39 847.0 600 0.0 6.7 24.3 327
26/03/2020 13:10 11.4 36 830.0 600 0.0 6.5 23.5 330
26/03/2020 13:20 11.4 37 810.0 600 0.0 6.5 23.4 330
26/03/2020 13:30 11.6 36 798.3 600 0.0 6.4 23.0 334
26/03/2020 13:40 11.6 35 771.9 592 0.0 5.6 20.3 322
26/03/2020 13:50 11.6 33 745.3 586 0.0 5.7 20.4 320
26/03/2020 14:00 11.8 34 743.2 600 0.0 4.9 17.7 332
26/03/2020 14:10 11.9 34 738.4 600 0.0 5.9 21.3 336
26/03/2020 14:20 11.9 31 724.3 600 0.0 4.4 15.8 313
26/03/2020 14:30 12.2 31 699.6 600 0.0 5.1 18.5 328
26/03/2020 14:40 12.0 31 678.1 600 0.0 4.8 17.1 326
26/03/2020 14:50 12.0 31 654.0 600 0.0 5.2 18.8 332
26/03/2020 15:00 12.0 33 623.4 600 0.0 4.8 17.4 337
26/03/2020 15:10 11.8 32 588.3 600 0.0 5.9 21.2 330
26/03/2020 15:20 11.8 32 556.8 600 0.0 5.1 18.4 333
26/03/2020 15:30 11.8 33 533.9 600 0.0 6.0 21.7 323
26/03/2020 15:40 11.5 35 505.9 600 0.0 6.0 21.7 307
26/03/2020 15:50 11.3 36 476.5 600 0.0 6.6 23.8 317
26/03/2020 16:00 11.1 36 439.6 600 0.0 6.8 24.4 318
26/03/2020 16:10 11.1 35 407.1 600 0.0 6.6 23.7 331
26/03/2020 16:20 10.8 33 374.9 600 0.0 6.8 24.4 334
26/03/2020 16:30 10.9 34 341.7 600 0.0 6.3 22.8 331
26/03/2020 16:40 10.6 34 310.8 600 0.0 6.3 22.5 327
26/03/2020 16:50 10.5 34 270.9 600 0.0 6.0 21.7 327
26/03/2020 17:00 10.3 36 233.7 600 0.0 5.4 19.3 337
26/03/2020 17:10 10.2 36 198.2 600 0.0 5.1 18.3 338
26/03/2020 17:20 9.9 35 166.8 600 0.0 5.9 21.4 346
26/03/2020 17:30 9.6 38 136.0 600 0.0 6.0 21.7 354
26/03/2020 17:40 9.4 36 105.7 600 0.0 4.9 17.6 345
26/03/2020 17:50 9.1 37 77.6 600 0.0 4.7 16.8 334
26/03/2020 18:00 8.8 38 51.9 600 0.0 5.0 18.1 337
26/03/2020 18:10 8.4 40 26.9 208 0.0 4.1 14.8 351
26/03/2020 18:20 8.0 41 0.7 0 0.0 3.4 12.1 338
26/03/2020 18:30 7.6 43 0.0 0 0.0 3.9 14.2 344
26/03/2020 18:40 7.2 46 0.0 0 0.0 2.6 9.2 332
26/03/2020 18:50 6.8 49 0.0 0 0.0 2.9 10.4 311
26/03/2020 19:00 6.6 48 0.0 0 0.0 4.0 14.4 322
26/03/2020 19:10 6.4 49 0.0 0 0.0 3.0 10.8 313
26/03/2020 19:20 6.2 51 0.0 0 0.0 3.0 10.7 321
26/03/2020 19:30 6.1 51 0.0 0 0.0 3.6 12.9 328
26/03/2020 19:40 6.0 51 0.0 0 0.0 3.1 11.3 325
26/03/2020 19:50 6.1 51 0.0 0 0.0 3.1 11.2 344
26/03/2020 20:00 5.8 52 0.0 0 0.0 2.1 7.6 13
26/03/2020 20:10 5.3 56 0.0 0 0.0 1.0 3.6 21
26/03/2020 20:20 5.0 56 0.0 0 0.0 0.4 1.4 41
26/03/2020 20:30 4.7 59 0.0 0 0.0 1.2 4.4 288
26/03/2020 20:40 4.5 60 0.0 0 0.0 1.3 4.8 256
26/03/2020 20:50 4.5 60 0.0 0 0.0 1.5 5.2 272
26/03/2020 21:00 4.3 60 0.0 0 0.0 1.2 4.3 288
26/03/2020 21:10 4.4 59 0.0 0 0.0 1.5 5.3 302
26/03/2020 21:20 4.5 58 0.0 0 0.0 1.6 5.9 296
26/03/2020 21:30 4.4 60 0.0 0 0.0 0.9 3.2 272
26/03/2020 21:40 3.9 63 0.0 0 0.0 0.9 3.1 185
26/03/2020 21:50 3.6 64 0.0 0 0.0 0.3 1.1 198
26/03/2020 22:00 3.4 67 0.0 0 0.0 0.1 0.4 88
26/03/2020 22:10 3.2 71 0.0 0 0.0 0.4 1.3 281
26/03/2020 22:20 3.3 70 0.0 0 0.0 0.5 1.7 243
26/03/2020 22:30 3.3 70 0.0 0 0.0 0.8 3.0 247
26/03/2020 22:40 3.4 70 0.0 0 0.0 0.6 2.0 220
26/03/2020 22:50 3.5 70 0.0 0 0.0 0.3 0.9 207
26/03/2020 23:00 3.7 71 0.0 0 0.0 0.4 1.4 178
26/03/2020 23:10 3.9 68 0.0 0 0.0 0.9 3.3 107
26/03/2020 23:20 4.1 69 0.0 0 0.0 1.5 5.4 66
26/03/2020 23:30 4.3 72 0.0 0 0.0 2.2 7.7 66
26/03/2020 23:40 4.5 72 0.0 0 0.0 1.9 6.7 64
26/03/2020 23:50 4.7 71 0.0 0 0.0 2.0 7.3 60
Anterior Página 1 de 1 Siguiente

NOTA: Tipo de datos según el color:
   - Valores diarios o 10 minutos correctos
   - Valores diarios calculados a partir de un número de datos 10 minutos menor que 144 y mayor que 120, o de un número de datos semihorarios menor que 48 y mayor que 40 (caso de las estaciones de INTIA y del Ministerio)
   - Valores diez minutos estimados


Contacto        Enlaces        Aviso legal